Time;durP1;ratioP1;P1;durP2;ratioP2;P2;SDS_P1;SDS_P2;PMS_P1;PMS_P2;Temp;Humidity;BMP_temperature;BMP_pressure;BME280_temperature;BME280_humidity;BME280_pressure;Samples;Min_cycle;Max_cycle;Signal;HPM_P1;HPM_P2
2021/05/06 00:33:50;;;;;;;6.10;5.50;;;;;;;13.39;86.50;96363.38;4929709;29;20511;-74
2021/05/06 00:36:15;;;;;;;8.55;5.38;;;;;;;13.03;87.54;96320.25;4927744;29;20543;-75
2021/05/06 00:38:53;;;;;;;7.97;4.88;;;;;;;13.38;87.22;96381.28;4929765;29;20039;-73
2021/05/06 01:00:17;;;;;;;8.27;5.15;;;;;;;12.98;86.99;96348.44;4929517;29;20087;-75
2021/05/06 01:07:55;;;;;;;6.07;4.90;;;;;;;12.92;87.81;96375.06;4929116;29;20350;-72
2021/05/06 01:12:48;;;;;;;9.60;5.00;;;;;;;12.94;87.85;96377.44;4929535;29;20036;-73
2021/05/06 01:15:14;;;;;;;9.27;5.38;;;;;;;12.83;87.29;96371.91;4943130;29;20122;-71
2021/05/06 01:17:40;;;;;;;14.45;4.88;;;;;;;12.83;87.06;96377.47;4927767;29;20039;-74
2021/05/06 01:20:07;;;;;;;8.45;4.90;;;;;;;12.69;87.50;96371.94;4927223;29;20047;-73
2021/05/06 01:22:32;;;;;;;7.20;4.63;;;;;;;12.37;87.98;96335.09;4943402;29;20046;-73
2021/05/06 01:24:59;;;;;;;7.88;4.95;;;;;;;12.73;88.08;96378.28;4929051;29;20036;-71
2021/05/06 01:28:13;;;;;;;10.55;5.55;;;;;;;12.30;87.48;96321.19;4928543;29;20036;-73
2021/05/06 01:35:57;;;;;;;7.03;5.90;;;;;;;11.72;87.50;96218.19;4944651;29;20039;-73
2021/05/06 01:41:39;;;;;;;9.30;5.15;;;;;;;12.73;87.88;96367.16;4928255;29;20024;-74
2021/05/06 01:59:13;;;;;;;11.27;5.68;;;;;;;12.57;88.03;96391.81;4928189;29;20039;-70
2021/05/06 02:01:38;;;;;;;6.78;4.75;;;;;;;12.55;88.60;96387.84;4927822;29;20510;-72
2021/05/06 02:04:03;;;;;;;13.20;6.35;;;;;;;10.10;88.15;96040.69;4928687;29;20031;-74
2021/05/06 02:06:29;;;;;;;7.55;5.65;;;;;;;11.69;88.31;96253.06;4927963;29;20043;-73
2021/05/06 02:08:54;;;;;;;8.65;5.07;;;;;;;12.47;89.74;96387.03;4927284;29;20043;-70
2021/05/06 02:11:21;;;;;;;7.88;5.55;;;;;;;12.52;89.48;96383.88;4927896;29;20047;-73
2021/05/06 02:13:47;;;;;;;8.82;5.85;;;;;;;12.60;89.34;96385.44;4928545;29;20027;-74
2021/05/06 02:16:19;;;;;;;8.73;5.53;;;;;;;12.65;89.22;96371.16;4927697;29;20423;-73
2021/05/06 02:18:45;;;;;;;10.57;5.63;;;;;;;11.76;88.93;96246.72;4942643;29;20035;-74
2021/05/06 02:21:15;;;;;;;11.35;6.60;;;;;;;12.44;90.62;96360.06;4927701;29;20035;-73
2021/05/06 02:23:41;;;;;;;12.00;6.22;;;;;;;12.58;90.27;96365.63;4926686;29;20544;-74
2021/05/06 02:26:07;;;;;;;10.43;6.13;;;;;;;12.49;90.40;96379.09;4927786;29;20506;-73
2021/05/06 02:28:32;;;;;;;11.63;6.55;;;;;;;12.29;92.59;96402.94;4927985;29;20035;-73
2021/05/06 02:30:57;;;;;;;8.65;5.78;;;;;;;12.07;92.02;96334.72;4927139;29;20067;-71
2021/05/06 02:33:23;;;;;;;15.55;7.00;;;;;;;12.42;91.83;96403.31;4926216;29;20040;-73
2021/05/06 02:35:48;;;;;;;11.68;5.82;;;;;;;11.50;91.29;96227.66;4925679;29;20046;-73
2021/05/06 02:38:14;;;;;;;7.20;5.38;;;;;;;12.00;90.12;96323.59;4927409;29;20048;-71
2021/05/06 02:40:39;;;;;;;9.32;5.72;;;;;;;12.30;90.32;96387.84;4941253;29;20039;-72
2021/05/06 02:43:04;;;;;;;7.85;5.50;;;;;;;12.21;90.12;96384.69;4927679;29;20039;-73
2021/05/06 02:45:30;;;;;;;7.90;4.88;;;;;;;11.85;91.23;96344.22;4927748;29;20043;-73
2021/05/06 02:47:55;;;;;;;6.03;5.38;;;;;;;12.18;91.21;96396.59;4942030;29;20143;-71
2021/05/06 02:50:23;;;;;;;9.07;5.43;;;;;;;11.89;91.64;96367.22;4926903;29;20042;-73
2021/05/06 02:53:12;;;;;;;7.80;5.68;;;;;;;11.35;91.61;96320.34;4927185;29;20040;-71
2021/05/06 02:55:51;;;;;;;9.35;6.00;;;;;;;12.15;92.16;96398.16;4926428;28;20066;-71
2021/05/06 02:58:32;;;;;;;13.82;6.60;;;;;;;12.30;91.04;96390.63;4927535;29;20624;-71
2021/05/06 03:03:44;;;;;;;;;;;;;;;12.40;91.53;96403.72;4927694;29;20125;-71
2021/05/06 03:06:18;;;;;;;7.90;5.93;;;;;;;12.26;92.44;96402.94;4925037;29;19961;-73
2021/05/06 03:08:46;;;;;;;20.40;7.38;;;;;;;12.18;92.03;96399.38;4927497;29;20031;-74
2021/05/06 03:25:14;;;;;;;11.13;5.97;;;;;;;11.68;98.28;96433.78;4926396;29;20066;-74
2021/05/06 03:43:23;;;;;;;10.45;6.30;;;;;;;11.44;93.85;96342.94;4906853;29;20060;-74
2021/05/06 03:49:03;;;;;;;17.63;6.90;;;;;;;12.29;92.14;96461.25;4907417;29;20115;-75
2021/05/06 04:18:30;;;;;;;9.52;5.57;;;;;;;13.70;83.85;96526.63;4910819;29;20063;-76
2021/05/06 04:37:11;;;;;;;;;;;;;;;14.87;76.28;96532.34;4910994;29;20458;-75
2021/05/06 04:55:36;;;;;;;;;;;;;;;16.65;68.28;96551.13;4929437;29;20118;-72
2021/05/06 05:03:38;;;;;;;13.77;5.63;;;;;;;17.42;62.48;96577.09;4929015;29;20047;-71
2021/05/06 05:06:07;;;;;;;10.02;5.20;;;;;;;17.68;59.35;96574.25;4928861;29;20039;-70
2021/05/06 05:08:41;;;;;;;9.18;4.32;;;;;;;17.16;56.46;96468.75;4927535;29;20035;-71
2021/05/06 05:27:24;;;;;;;5.93;3.63;;;;;;;19.02;51.09;96586.28;4928512;29;20060;-75
2021/05/06 05:29:53;;;;;;;5.82;3.50;;;;;;;18.69;51.43;96520.09;4928647;29;20660;-76
2021/05/06 05:32:19;;;;;;;6.38;4.05;;;;;;;19.25;50.73;96588.94;4926892;29;20308;-76
2021/05/06 05:37:46;;;;;;;8.73;4.15;;;;;;;19.44;50.23;96592.94;4928138;29;20616;-77
2021/05/06 05:55:47;;;;;;;4.40;2.72;;;;;;;19.92;45.38;96558.34;4927051;29;20090;-65
2021/05/06 05:58:14;;;;;;;2.95;2.42;;;;;;;20.23;44.23;96593.28;4936111;29;20031;-69
2021/05/06 06:00:40;;;;;;;6.40;2.75;;;;;;;19.39;43.35;96498.72;4932771;29;20047;-69
2021/05/06 06:03:05;;;;;;;4.00;3.08;;;;;;;18.84;43.98;96386.63;4935308;28;20035;-66
2021/05/06 06:05:30;;;;;;;4.55;3.17;;;;;;;20.67;43.83;96589.56;4930731;29;20417;-69
2021/05/06 06:07:56;;;;;;;6.45;3.40;;;;;;;20.72;43.31;96597.47;4934198;29;20043;-71
2021/05/06 06:10:21;;;;;;;5.97;2.88;;;;;;;20.02;41.44;96450.41;4938962;28;20039;-69
2021/05/06 06:12:47;;;;;;;6.90;2.88;;;;;;;21.21;40.83;96595.97;4936721;28;20117;-71
2021/05/06 06:18:08;;;;;;;4.38;3.13;;;;;;;21.49;41.86;96575.31;4923837;29;20050;-72
2021/05/06 06:20:36;;;;;;;4.13;3.13;;;;;;;20.50;41.79;96456.59;4925817;29;20126;-68
2021/05/06 06:23:01;;;;;;;6.10;3.40;;;;;;;20.49;41.16;96417.63;4926294;29;20396;-69
2021/05/06 06:25:27;;;;;;;5.57;2.90;;;;;;;20.81;39.54;96487.78;4927541;29;20047;-64
2021/05/06 06:27:52;;;;;;;5.60;2.72;;;;;;;21.65;38.59;96592.09;4925471;29;20122;-75
2021/05/06 06:30:19;;;;;;;3.60;2.50;;;;;;;21.53;39.66;96590.06;4927093;29;20036;-70
2021/05/06 06:32:44;;;;;;;6.32;2.95;;;;;;;21.80;38.97;96581.13;4934324;29;20050;-74
2021/05/06 06:35:09;;;;;;;6.50;2.63;;;;;;;21.43;38.85;96522.78;4944936;28;20045;-66
2021/05/06 06:37:35;;;;;;;4.40;2.55;;;;;;;21.89;39.56;96561.50;4946530;28;20122;-68
2021/05/06 06:40:00;;;;;;;6.32;3.45;;;;;;;21.95;39.39;96556.84;4943345;29;20031;-65
2021/05/06 06:42:26;;;;;;;5.80;3.20;;;;;;;21.26;38.53;96429.16;4927898;29;20397;-67
2021/05/06 06:44:51;;;;;;;5.18;2.63;;;;;;;21.57;38.12;96528.75;4927295;29;20070;-68
2021/05/06 06:47:17;;;;;;;7.97;3.10;;;;;;;21.74;37.82;96549.88;4926513;29;20035;-68
2021/05/06 06:49:42;;;;;;;7.47;3.33;;;;;;;21.68;37.70;96495.34;4927170;29;20075;-68
2021/05/06 06:52:10;;;;;;;6.57;3.53;;;;;;;21.74;37.33;96510.41;4245365;28;20004226;-67
2021/05/06 06:54:36;;;;;;;5.30;3.33;;;;;;;22.04;37.13;96518.22;4927124;29;20433;-67
2021/05/06 06:57:08;;;;;;;5.57;3.13;;;;;;;22.66;37.06;96591.75;4930545;29;20064;-72
2021/05/06 06:59:34;;;;;;;5.22;2.97;;;;;;;22.82;36.97;96591.56;4939247;28;20624;-66
2021/05/06 07:01:59;;;;;;;6.72;3.10;;;;;;;22.29;36.64;96495.50;4939252;28;20039;-69
2021/05/06 07:04:25;;;;;;;5.38;2.92;;;;;;;22.95;38.02;96586.63;4929601;29;20039;-65
2021/05/06 07:06:50;;;;;;;4.43;2.70;;;;;;;23.07;36.40;96585.72;4938369;28;20046;-64
2021/05/06 07:09:16;;;;;;;5.97;3.42;;;;;;;22.03;36.25;96420.75;4937085;29;20675;-75
2021/05/06 07:11:42;;;;;;;7.25;3.28;;;;;;;22.12;36.14;96426.44;4938629;28;20044;-64
2021/05/06 07:14:07;;;;;;;3.72;3.03;;;;;;;23.19;35.92;96590.50;4933446;29;20040;-66
2021/05/06 07:16:33;;;;;;;5.90;3.30;;;;;;;22.45;35.92;96441.69;4936097;28;20459;-72
2021/05/06 07:18:59;;;;;;;4.90;3.38;;;;;;;23.42;35.56;96599.28;4908396;28;20059;-67
2021/05/06 07:21:26;;;;;;;4.05;3.15;;;;;;;23.37;34.11;96573.63;4924645;29;20035;-65
2021/05/06 07:23:55;;;;;;;10.18;3.55;;;;;;;23.04;33.77;96549.91;4926557;29;20342;-64
2021/05/06 07:26:24;;;;;;;3.97;3.28;;;;;;;23.38;33.83;96598.63;4934640;29;20383;-63
2021/05/06 07:31:34;;;;;;;4.93;3.60;;;;;;;22.88;35.54;96584.06;4925168;29;20535;-71
2021/05/06 07:33:59;;;;;;;7.18;2.92;;;;;;;22.48;34.80;96519.78;4926756;29;20028;-70
2021/05/06 07:36:25;;;;;;;3.53;3.08;;;;;;;23.19;34.58;96613.13;4925556;29;20043;-65
2021/05/06 07:38:51;;;;;;;6.10;3.40;;;;;;;23.27;34.71;96625.72;4931083;29;20427;-64
2021/05/06 07:41:16;;;;;;;3.67;3.00;;;;;;;23.28;34.75;96632.97;4942203;28;20058;-70
2021/05/06 07:43:43;;;;;;;3.70;3.25;;;;;;;22.68;35.02;96493.25;4943959;29;20039;-64
2021/05/06 07:46:09;;;;;;;4.93;3.40;;;;;;;23.27;35.19;96622.91;4943312;28;20027;-64
2021/05/06 07:48:35;;;;;;;4.00;2.72;;;;;;;23.39;35.83;96622.03;4945623;28;20569;-64
2021/05/06 07:51:02;;;;;;;8.52;3.25;;;;;;;23.40;34.98;96606.63;4945157;28;20302;-66
2021/05/06 07:53:37;;;;;;;5.15;3.38;;;;;;;23.58;34.80;96626.50;4943720;29;20114;-66
2021/05/06 07:56:03;;;;;;;4.03;2.85;;;;;;;23.64;34.61;96630.28;4925540;28;20056;-64
2021/05/06 07:58:28;;;;;;;7.32;3.35;;;;;;;23.48;35.54;96639.03;4922775;29;20933;-63
2021/05/06 08:00:53;;;;;;;6.95;3.70;;;;;;;23.45;35.38;96637.13;4951251;28;20094;-63
2021/05/06 08:03:19;;;;;;;5.63;2.85;;;;;;;23.11;35.54;96617.47;4939121;28;20107;-64
2021/05/06 08:05:45;;;;;;;6.13;3.20;;;;;;;23.53;35.05;96649.72;4937151;28;20035;-65
2021/05/06 08:08:10;;;;;;;6.18;3.42;;;;;;;23.36;35.33;96612.41;4932810;28;20063;-61
2021/05/06 08:10:36;;;;;;;10.65;2.83;;;;;;;23.73;35.97;96636.75;4934018;29;20572;-63
2021/05/06 08:13:02;;;;;;;6.22;3.22;;;;;;;23.43;34.24;96605.69;4932204;28;20332;-66
2021/05/06 08:15:29;;;;;;;8.40;3.60;;;;;;;22.85;35.40;96548.25;4934751;28;20071;-63
2021/05/06 08:17:54;;;;;;;3.42;3.10;;;;;;;22.19;35.04;96417.69;4937098;29;20071;-63
2021/05/06 08:20:22;;;;;;;4.07;2.97;;;;;;;23.45;34.60;96642.78;4936509;29;20035;-67
2021/05/06 08:22:48;;;;;;;4.07;3.67;;;;;;;21.45;35.44;96411.16;4928390;28;20107;-63
2021/05/06 08:25:15;;;;;;;6.78;3.55;;;;;;;23.16;34.91;96611.19;4931172;29;20281;-63
2021/05/06 08:27:42;;;;;;;8.07;2.70;;;;;;;23.10;35.17;96610.22;4924214;29;20046;-64
2021/05/06 08:30:10;;;;;;;3.33;3.03;;;;;;;22.93;34.95;96583.47;4928155;29;20519;-65
2021/05/06 08:32:35;;;;;;;4.10;3.38;;;;;;;22.07;35.43;96522.94;4927129;29;20567;-66
2021/05/06 08:35:01;;;;;;;6.72;3.33;;;;;;;23.07;35.26;96616.81;4931230;29;20126;-63
2021/05/06 08:37:26;;;;;;;7.05;3.80;;;;;;;20.85;35.63;96317.50;4943105;28;20042;-66
2021/05/06 08:39:52;;;;;;;4.72;2.90;;;;;;;23.01;35.10;96641.25;4936542;28;20520;-66
2021/05/06 08:42:19;;;;;;;3.15;2.85;;;;;;;23.33;35.01;96652.16;4923845;29;20126;-64
2021/05/06 08:44:44;;;;;;;6.72;3.00;;;;;;;23.46;34.29;96652.81;4921212;29;20040;-62
2021/05/06 08:47:19;;;;;;;3.15;2.50;;;;;;;23.50;34.94;96645.81;4905618;29;20471;-69
2021/05/06 08:49:45;;;;;;;6.18;3.65;;;;;;;23.32;33.91;96600.47;4938127;29;20039;-65
2021/05/06 08:52:16;;;;;;;4.57;3.10;;;;;;;23.83;32.54;96651.72;4934906;28;20035;-63
2021/05/06 08:54:42;;;;;;;3.30;2.78;;;;;;;22.68;32.61;96462.19;4938473;29;20031;-66
2021/05/06 08:57:08;;;;;;;6.05;3.42;;;;;;;24.23;33.31;96658.16;4945574;28;20055;-64
2021/05/06 08:59:33;;;;;;;5.03;3.05;;;;;;;24.17;33.03;96651.50;4935395;28;20040;-63
2021/05/06 09:01:59;;;;;;;4.05;3.25;;;;;;;24.34;32.91;96658.47;4933717;28;20075;-63
2021/05/06 09:04:30;;;;;;;6.72;3.00;;;;;;;23.71;33.02;96588.34;4945637;28;20422;-61
2021/05/06 09:07:03;;;;;;;5.50;2.80;;;;;;;23.08;33.26;96539.28;4945454;29;20525;-62
2021/05/06 09:09:31;;;;;;;8.80;3.10;;;;;;;23.60;33.47;96655.13;4947075;28;20035;-63
2021/05/06 09:12:02;;;;;;;4.90;2.78;;;;;;;23.71;33.75;96661.13;4945012;29;20049;-62
2021/05/06 09:14:39;;;;;;;4.65;3.50;;;;;;;23.94;32.29;96666.22;4946490;28;20435;-62
2021/05/06 09:17:27;;;;;;;3.72;2.83;;;;;;;23.82;31.62;96650.16;4946187;29;20039;-61
2021/05/06 09:20:14;;;;;;;5.97;3.00;;;;;;;24.41;31.46;96663.81;4946180;29;20043;-62
2021/05/06 09:22:45;;;;;;;5.47;2.70;;;;;;;25.12;31.04;96662.25;4947770;28;20050;-62
2021/05/06 09:25:36;;;;;;;5.10;2.95;;;;;;;25.06;31.44;96664.16;4947246;28;20035;-62
2021/05/06 09:28:16;;;;;;;4.72;2.50;;;;;;;24.97;30.92;96661.34;4946459;28;20088;-61
2021/05/06 09:31:04;;;;;;;6.70;3.05;;;;;;;25.17;29.84;96661.59;4945901;29;20031;-62
2021/05/06 09:33:35;;;;;;;3.42;3.05;;;;;;;25.41;30.92;96660.94;4946251;29;20050;-62
2021/05/06 09:36:16;;;;;;;4.35;3.08;;;;;;;24.13;31.28;96645.22;4947633;28;20106;-62
2021/05/06 09:38:55;;;;;;;6.40;2.70;;;;;;;23.78;31.66;96533.53;4945998;28;20545;-62
2021/05/06 09:41:24;;;;;;;3.55;2.97;;;;;;;24.52;31.34;96664.13;4945568;28;20524;-62
2021/05/06 09:43:50;;;;;;;2.88;2.65;;;;;;;24.59;30.63;96669.50;4930281;28;20204;-62
2021/05/06 09:46:37;;;;;;;3.28;2.55;;;;;;;24.74;30.78;96676.13;4926460;29;20036;-63
2021/05/06 09:49:08;;;;;;;5.07;2.60;;;;;;;24.56;30.68;96619.47;4928948;29;20071;-63
2021/05/06 09:51:41;;;;;;;4.00;2.95;;;;;;;25.15;30.71;96678.28;4942476;29;20063;-62
2021/05/06 09:54:12;;;;;;;3.25;2.78;;;;;;;25.18;29.67;96683.00;4927125;29;20046;-61
2021/05/06 09:56:39;;;;;;;2.85;2.22;;;;;;;24.93;29.07;96612.50;4927729;29;20043;-64
2021/05/06 09:59:06;;;;;;;5.65;3.30;;;;;;;25.00;32.06;96631.25;4926803;29;20479;-65
2021/05/06 10:01:34;;;;;;;4.07;2.97;;;;;;;23.85;32.96;96632.25;4926264;29;20091;-64
2021/05/06 10:04:20;;;;;;;5.22;3.28;;;;;;;24.38;32.98;96687.41;4926583;29;20039;-64
2021/05/06 10:07:03;;;;;;;9.65;3.30;;;;;;;24.53;32.34;96682.69;4927125;29;20064;-65
2021/05/06 10:09:30;;;;;;;;;;;;;;;23.97;33.42;96687.16;4929035;29;20106;-64
2021/05/06 10:11:56;;;;;;;4.97;3.60;;;;;;;23.56;33.44;96637.50;4928226;29;19926;-64
2021/05/06 10:14:21;;;;;;;5.78;3.13;;;;;;;21.45;33.58;96289.22;4928080;29;20039;-64
2021/05/06 10:16:48;;;;;;;4.40;3.05;;;;;;;23.17;34.18;96629.75;4927457;29;20495;-65
2021/05/06 10:19:16;;;;;;;7.13;4.25;;;;;;;23.81;34.27;96682.50;4927790;29;20058;-64
2021/05/06 10:21:43;;;;;;;8.07;4.10;;;;;;;24.36;33.69;96689.16;4925567;29;20039;-65
2021/05/06 10:24:09;;;;;;;5.40;2.30;;;;;;;22.09;32.94;96395.53;4927708;29;20043;-64
2021/05/06 10:26:37;;;;;;;3.35;2.97;;;;;;;23.33;33.56;96663.47;4927024;29;20038;-65
2021/05/06 10:29:04;;;;;;;4.10;2.72;;;;;;;23.23;34.73;96675.94;4927803;29;20028;-64
2021/05/06 10:31:29;;;;;;;3.42;2.92;;;;;;;23.77;34.08;96673.41;4927134;29;20594;-67
2021/05/06 10:33:55;;;;;;;9.48;4.20;;;;;;;22.79;33.42;96555.75;4928028;29;20028;-65
2021/05/06 10:36:22;;;;;;;4.38;2.88;;;;;;;23.74;33.89;96682.81;4926995;29;20448;-66
2021/05/06 10:38:48;;;;;;;3.20;2.35;;;;;;;23.26;32.60;96675.03;4925695;29;20027;-67
2021/05/06 10:41:22;;;;;;;4.07;2.78;;;;;;;23.26;33.21;96675.03;4926891;29;20042;-64
2021/05/06 10:43:56;;;;;;;3.35;2.75;;;;;;;23.67;33.41;96683.09;4925902;29;20035;-65
2021/05/06 10:46:22;;;;;;;4.63;2.20;;;;;;;23.64;32.86;96672.72;4923807;29;20567;-65
2021/05/06 10:49:04;;;;;;;4.47;3.25;;;;;;;23.47;33.12;96674.97;4927353;29;20035;-65
2021/05/06 10:51:39;;;;;;;4.38;3.13;;;;;;;24.03;32.63;96683.25;4925518;29;20050;-66
2021/05/06 10:54:33;;;;;;;5.25;2.80;;;;;;;24.74;31.88;96669.66;4926272;29;20134;-67
2021/05/06 10:57:01;;;;;;;5.53;2.70;;;;;;;24.59;31.42;96680.84;4926808;29;20599;-65
2021/05/06 10:59:33;;;;;;;4.28;3.30;;;;;;;24.76;31.25;96682.13;4941604;29;20047;-64
2021/05/06 11:01:59;;;;;;;4.38;2.90;;;;;;;24.62;30.64;96679.88;4925401;29;20550;-64
2021/05/06 11:04:36;;;;;;;6.93;5.50;;;;;;;24.97;31.60;96700.22;4927530;29;20048;-65
2021/05/06 11:07:15;;;;;;;4.07;3.10;;;;;;;25.56;30.34;96684.53;4926851;29;20035;-65
2021/05/06 11:09:45;;;;;;;3.67;3.35;;;;;;;25.92;29.34;96684.38;4926737;29;20039;-65
2021/05/06 11:12:17;;;;;;;4.57;2.95;;;;;;;26.08;29.73;96686.88;4925295;29;20123;-64
2021/05/06 11:14:58;;;;;;;3.63;2.75;;;;;;;26.36;28.61;96682.59;4925087;29;20066;-65
2021/05/06 11:17:24;;;;;;;5.53;2.55;;;;;;;26.78;28.00;96688.94;4924953;29;20066;-64
2021/05/06 11:19:49;;;;;;;3.75;2.97;;;;;;;26.95;28.46;96681.53;4924874;28;20547;-65
2021/05/06 11:23:03;;;;;;;3.35;2.78;;;;;;;27.16;28.00;96680.38;4912204;28;20054;-65
2021/05/06 11:25:29;;;;;;;5.72;2.88;;;;;;;26.93;27.23;96672.69;4906914;29;20059;-64
2021/05/06 11:27:55;;;;;;;5.25;3.00;;;;;;;27.25;27.45;96677.44;4906190;29;20518;-63
2021/05/06 11:30:43;;;;;;;3.17;2.97;;;;;;;27.80;27.23;96678.44;4906020;29;20047;-64
2021/05/06 11:36:11;;;;;;;3.03;2.65;;;;;;;27.95;26.45;96636.50;4907321;29;20135;-64
2021/05/06 11:38:37;;;;;;;3.75;3.38;;;;;;;28.43;26.58;96673.19;4907464;29;20099;-66
2021/05/06 11:41:14;;;;;;;5.65;3.45;;;;;;;28.51;26.37;96680.06;4906888;29;20044;-65
2021/05/06 11:43:48;;;;;;;4.97;3.45;;;;;;;28.65;26.53;96679.19;4905636;29;20135;-62
2021/05/06 11:46:25;;;;;;;8.25;3.58;;;;;;;28.61;27.47;96667.25;4907021;29;20107;-61
2021/05/06 11:48:57;;;;;;;3.42;3.00;;;;;;;28.55;27.75;96674.94;4906430;29;20423;-62
2021/05/06 11:51:26;;;;;;;4.35;3.95;;;;;;;27.81;27.93;96674.31;4905432;29;20043;-61
2021/05/06 11:54:06;;;;;;;4.78;3.25;;;;;;;27.14;29.23;96671.53;4906092;29;20480;-62
2021/05/06 11:56:34;;;;;;;3.33;2.83;;;;;;;24.52;27.52;96354.63;4906689;29;20052;-64
2021/05/06 11:59:00;;;;;;;4.07;2.65;;;;;;;26.51;28.01;96669.22;4906914;29;20060;-62
2021/05/06 12:01:27;;;;;;;5.15;2.60;;;;;;;26.45;27.05;96631.38;4906156;29;20040;-62
2021/05/06 12:03:53;;;;;;;5.53;3.42;;;;;;;26.76;27.92;96668.75;4905429;29;20072;-63
2021/05/06 12:06:34;;;;;;;3.20;2.90;;;;;;;26.68;25.62;96678.94;4904941;29;20689;-62
2021/05/06 12:09:05;;;;;;;3.55;3.22;;;;;;;26.68;25.54;96678.94;4906781;29;20052;-63
2021/05/06 12:11:41;;;;;;;8.60;3.80;;;;;;;26.99;25.63;96676.44;4905630;29;20040;-63
2021/05/06 12:14:09;;;;;;;3.42;2.40;;;;;;;26.99;25.11;96676.44;4904959;29;20038;-64
2021/05/06 12:16:36;;;;;;;4.07;2.72;;;;;;;26.91;25.04;96674.44;4904122;29;20036;-63
2021/05/06 12:19:13;;;;;;;2.88;2.30;;;;;;;26.25;24.80;96558.19;4905980;29;20040;-65
2021/05/06 12:21:43;;;;;;;2.67;2.47;;;;;;;27.00;25.03;96672.31;4903974;29;20044;-61
2021/05/06 12:24:12;;;;;;;6.03;3.35;;;;;;;26.97;26.10;96619.25;4906503;29;20416;-62
2021/05/06 12:26:40;;;;;;;4.55;2.28;;;;;;;27.22;25.10;96610.16;4906795;29;20046;-62
2021/05/06 12:29:05;;;;;;;27.42;4.47;;;;;;;26.91;27.83;96607.00;4907999;29;20498;-62
2021/05/06 12:31:44;;;;;;;13.02;5.60;;;;;;;27.54;27.55;96683.16;4907651;29;20044;-64
2021/05/06 12:34:21;;;;;;;3.55;2.85;;;;;;;27.38;27.37;96623.16;4908757;29;20048;-61
2021/05/06 12:36:49;;;;;;;3.88;2.85;;;;;;;27.43;27.49;96665.91;4908444;29;20126;-63
2021/05/06 12:39:16;;;;;;;10.82;6.22;;;;;;;27.16;27.74;96640.56;4908894;29;20113;-63
2021/05/06 12:41:49;;;;;;;6.95;3.58;;;;;;;27.60;26.24;96658.44;4909547;29;20066;-63
2021/05/06 12:44:31;;;;;;;;;;;;;;;27.76;26.16;96655.06;4910523;29;20055;-62
2021/05/06 12:47:15;;;;;;;4.15;3.35;;;;;;;28.01;26.67;96654.44;4908806;29;19929;-64
2021/05/06 12:49:43;;;;;;;;;;;;;;;29.29;25.66;96648.34;4909516;29;20516;-62
2021/05/06 12:52:32;;;;;;;8.55;6.30;;;;;;;30.77;24.18;96642.97;4910567;29;20070;-63
2021/05/06 12:55:00;;;;;;;4.72;3.45;;;;;;;23.40;22.56;95451.31;4909799;29;20048;-61
2021/05/06 12:57:26;;;;;;;5.13;2.90;;;;;;;32.82;20.59;96631.50;4910296;29;20051;-62
2021/05/06 12:59:51;;;;;;;3.22;2.92;;;;;;;33.34;20.10;96574.84;4910675;29;20455;-63
2021/05/06 13:02:18;;;;;;;5.75;4.32;;;;;;;32.87;21.06;96633.56;4910049;29;20044;-63
2021/05/06 13:04:56;;;;;;;6.32;3.85;;;;;;;32.36;21.45;96635.03;4908693;29;20444;-63
2021/05/06 13:07:22;;;;;;;3.03;2.70;;;;;;;31.74;21.68;96624.91;4907523;29;20483;-63
2021/05/06 13:09:51;;;;;;;3.08;2.83;;;;;;;30.46;22.73;96631.59;4909328;29;20036;-63
2021/05/06 13:12:25;;;;;;;3.75;3.22;;;;;;;28.74;23.28;96542.22;4908948;29;20432;-63
2021/05/06 13:15:09;;;;;;;7.28;3.60;;;;;;;29.63;23.53;96633.06;4907703;29;20043;-63
2021/05/06 13:17:35;;;;;;;3.70;3.40;;;;;;;31.97;20.97;96608.53;4908463;29;20171;-62
2021/05/06 13:20:20;;;;;;;2.90;2.65;;;;;;;33.46;18.90;96605.88;4909947;29;20048;-63
2021/05/06 13:23:01;;;;;;;4.82;3.70;;;;;;;31.73;20.62;96620.50;4910346;29;20496;-63
2021/05/06 13:25:47;;;;;;;7.18;4.80;;;;;;;30.35;22.23;96634.41;4908200;29;20048;-67
2021/05/06 13:28:17;;;;;;;3.90;3.22;;;;;;;29.11;23.59;96637.25;4909906;29;20083;-63
2021/05/06 13:30:44;;;;;;;6.32;4.13;;;;;;;28.64;23.49;96473.16;4909321;29;20456;-63
2021/05/06 13:33:19;;;;;;;10.10;7.18;;;;;;;30.05;24.03;96630.28;4909705;29;20035;-63
2021/05/06 13:36:09;;;;;;;12.75;6.53;;;;;;;29.51;24.14;96477.25;4907811;29;20123;-63
2021/05/06 13:38:56;;;;;;;4.47;3.65;;;;;;;30.87;23.14;96627.09;4907287;29;20134;-63
2021/05/06 13:41:28;;;;;;;5.72;3.15;;;;;;;29.87;24.10;96629.91;4909733;29;20046;-62
2021/05/06 13:43:56;;;;;;;4.05;3.63;;;;;;;27.47;24.75;96358.41;4909367;29;20040;-63
2021/05/06 13:46:23;;;;;;;4.32;3.60;;;;;;;28.95;25.36;96634.97;4907147;29;20131;-63
2021/05/06 13:48:49;;;;;;;4.00;3.40;;;;;;;28.89;26.19;96631.28;4909220;29;20119;-63
2021/05/06 13:51:15;;;;;;;3.20;2.92;;;;;;;28.15;26.33;96630.84;4908396;29;20066;-63
2021/05/06 13:53:43;;;;;;;4.43;3.55;;;;;;;27.06;28.10;96613.50;4909457;29;20152;-65
2021/05/06 13:56:10;;;;;;;4.95;3.20;;;;;;;27.71;27.29;96624.44;4908866;29;20161;-64
2021/05/06 13:58:36;;;;;;;6.30;2.85;;;;;;;26.58;28.47;96464.25;4909208;29;20036;-65
2021/05/06 14:01:04;;;;;;;3.50;3.20;;;;;;;27.03;30.11;96617.31;4909093;29;20036;-64
2021/05/06 14:03:30;;;;;;;7.07;3.38;;;;;;;26.74;30.57;96648.56;4909129;29;20052;-62
2021/05/06 14:05:55;;;;;;;4.65;3.58;;;;;;;25.96;30.95;96506.16;4908974;29;20484;-63
2021/05/06 14:08:22;;;;;;;8.93;3.55;;;;;;;26.33;31.56;96606.88;4909287;29;20488;-64
2021/05/06 14:10:48;;;;;;;3.22;2.92;;;;;;;25.90;32.55;96632.97;4907206;29;20450;-64
2021/05/06 14:13:16;;;;;;;6.10;2.80;;;;;;;24.93;33.21;96515.34;4909001;29;20036;-64
2021/05/06 14:15:41;;;;;;;5.13;3.00;;;;;;;25.63;32.62;96627.44;4907091;29;20532;-64
2021/05/06 14:18:07;;;;;;;7.07;3.28;;;;;;;25.68;33.04;96635.31;4909529;29;20036;-65
2021/05/06 14:20:33;;;;;;;4.68;3.95;;;;;;;26.04;32.36;96635.13;4908486;29;20521;-65
2021/05/06 14:22:58;;;;;;;7.60;4.85;;;;;;;26.43;31.93;96582.81;4909109;29;20051;-67
2021/05/06 14:25:24;;;;;;;6.07;3.13;;;;;;;26.94;30.87;96603.19;4907089;29;20249;-64
2021/05/06 14:27:50;;;;;;;3.85;2.80;;;;;;;27.18;31.37;96638.00;4907580;29;20036;-66
2021/05/06 14:30:16;;;;;;;3.03;2.83;;;;;;;27.59;30.44;96625.56;4906693;29;20039;-64
2021/05/06 14:32:41;;;;;;;3.58;3.03;;;;;;;27.86;29.04;96618.72;4909258;29;20139;-64
2021/05/06 14:35:07;;;;;;;3.53;3.28;;;;;;;27.51;29.77;96655.69;4907508;29;20040;-65
2021/05/06 14:37:32;;;;;;;3.40;3.10;;;;;;;27.28;30.48;96630.19;4907035;29;20032;-64
2021/05/06 14:39:58;;;;;;;4.32;3.15;;;;;;;27.13;30.25;96630.16;4908707;29;20523;-63
2021/05/06 14:42:24;;;;;;;7.20;3.70;;;;;;;26.70;29.54;96534.25;4907855;29;20496;-63
2021/05/06 14:44:50;;;;;;;5.57;5.07;;;;;;;27.31;29.66;96621.47;4906840;29;20044;-64
2021/05/06 14:47:16;;;;;;;7.22;5.30;;;;;;;27.69;29.39;96643.31;4907845;29;20045;-63
2021/05/06 14:49:41;;;;;;;5.60;3.55;;;;;;;26.91;30.88;96652.50;4907892;29;20047;-65
2021/05/06 14:52:07;;;;;;;7.32;4.40;;;;;;;27.31;30.52;96655.63;4908390;29;20483;-64
2021/05/06 14:54:32;;;;;;;16.25;6.38;;;;;;;27.67;29.56;96640.16;4906940;29;20415;-64
2021/05/06 14:56:58;;;;;;;6.65;4.50;;;;;;;28.81;28.92;96647.25;4906384;29;20215;-65
2021/05/06 14:59:23;;;;;;;8.38;5.55;;;;;;;28.84;28.50;96594.91;4906510;29;20039;-64
2021/05/06 15:01:49;;;;;;;12.75;5.63;;;;;;;29.70;27.60;96643.28;4908217;29;20544;-63
2021/05/06 15:04:14;;;;;;;4.13;3.78;;;;;;;29.51;28.10;96654.25;4907844;29;20043;-64
2021/05/06 15:06:40;;;;;;;6.85;3.35;;;;;;;29.87;27.78;96653.56;4905951;29;20036;-65
2021/05/06 15:09:06;;;;;;;5.35;3.10;;;;;;;28.70;29.31;96658.53;4908485;29;20110;-64
2021/05/06 15:11:33;;;;;;;5.68;3.38;;;;;;;28.25;29.05;96610.78;4907706;29;20519;-63
2021/05/06 15:13:58;;;;;;;5.88;3.85;;;;;;;27.64;29.38;96567.94;4908165;29;20523;-63
2021/05/06 15:16:24;;;;;;;4.60;3.35;;;;;;;27.88;29.47;96645.44;4906036;29;20040;-63
2021/05/06 15:18:49;;;;;;;6.70;4.40;;;;;;;27.54;30.62;96645.38;4907931;29;20036;-64
2021/05/06 15:21:15;;;;;;;5.20;3.35;;;;;;;27.73;29.88;96582.03;4905776;29;20035;-63
2021/05/06 15:23:41;;;;;;;3.35;3.08;;;;;;;27.50;30.80;96602.91;4908357;29;20087;-64
2021/05/06 15:26:06;;;;;;;4.45;3.25;;;;;;;26.52;30.39;96406.56;4906024;29;20036;-63
2021/05/06 15:28:32;;;;;;;4.43;2.92;;;;;;;26.43;32.52;96616.91;4907764;29;20115;-63
2021/05/06 15:30:58;;;;;;;6.57;3.22;;;;;;;25.24;34.30;96556.34;4906063;29;20067;-63